Crane Gaia — 3FXX2 — position and weather

sailwx.info

Track history (hours):
 
Tides and Currents Weather Stations Pressure Air Temp Water Temp Dewpoint Dewpoint Depression Visibility Wind Speed Wind Dir Waves Ship Positions

Crane Gaia

Last reported at 2016-Aug-18 17:33 UTC. Time now 2016-Aug-24 19:47 UTC.
Position N 21°60' E 114°31'.

Length 115 m; draft 5.3 m.

Type: Tanker. MMSI: 352461000.

Date/timePositionNaut miles runAvg speedWind from/ knotsBaromVisibWave heightAir tempDewpointWater temp
2016-Aug-18 17:33N 21°60' E 114°31'3611.8
2016-Aug-18 14:32N 22°01' E 113°53'1010.5
2016-Aug-18 13:33N 22°10' E 113°47'1211.9
2016-Aug-18 12:33N 22°22' E 113°47'31 1.0
2016-Aug-17 06:33N 22°50' E 113°34'30 9.8
2016-Aug-17 03:29N 22°23' E 113°47'9 9.9
2016-Aug-17 02:33N 22°14' E 113°48'6 5.8
2016-Aug-17 01:29N 22°07' E 113°47'0 0.0
2016-Aug-17 00:29N 22°07' E 113°47'0 0.0
2016-Aug-16 23:29N 22°07' E 113°47'0 0.1
2016-Aug-16 22:29N 22°07' E 113°48'0 0.0
2016-Aug-16 21:29N 22°07' E 113°48'0 0.0
2016-Aug-16 20:29N 22°07' E 113°48'0 0.1
2016-Aug-16 19:29N 22°07' E 113°47'0 0.0
2016-Aug-16 18:29N 22°07' E 113°47'0 0.0
2016-Aug-16 17:29N 22°07' E 113°47'0 0.0
2016-Aug-16 16:29N 22°07' E 113°47'0 0.1
2016-Aug-16 15:29N 22°07' E 113°48'0 0.0
2016-Aug-16 14:29N 22°07' E 113°48'0 0.0
2016-Aug-16 13:29N 22°07' E 113°48'0 0.0
2016-Aug-16 12:11N 22°07' E 113°48'0 0.0
2016-Aug-16 11:29N 22°07' E 113°48'0 0.0
2016-Aug-16 10:29N 22°07' E 113°48'0 0.0
2016-Aug-16 09:29N 22°07' E 113°48'0 0.1
2016-Aug-16 08:29N 22°07' E 113°48'5 5.5
2016-Aug-16 07:33N 22°03' E 113°51'32811.3
2016-Aug-15 02:33N 24°20' E 119°15'  
Track history (hours):
 
Tides and Currents Weather Stations Pressure Air Temp Water Temp Dewpoint Dewpoint Depression Visibility Wind Speed Wind Dir Waves Ship Positions

Crane Gaia

Last reported at 2016-Aug-18 17:33 UTC. Time now 2016-Aug-24 19:47 UTC.
Position N 21°60' E 114°31'.

Length 115 m; draft 5.3 m.

Type: Tanker. MMSI: 352461000.

Date/timePositionNaut miles runAvg speedWind from/ knotsBaromVisibWave heightAir tempDewpointWater temp
2016-Aug-18 17:33N 21°60' E 114°31'3611.8
2016-Aug-18 14:32N 22°01' E 113°53'1010.5
2016-Aug-18 13:33N 22°10' E 113°47'1211.9
2016-Aug-18 12:33N 22°22' E 113°47'31 1.0
2016-Aug-17 06:33N 22°50' E 113°34'30 9.8
2016-Aug-17 03:29N 22°23' E 113°47'9 9.9
2016-Aug-17 02:33N 22°14' E 113°48'6 5.8
2016-Aug-17 01:29N 22°07' E 113°47'0 0.0
2016-Aug-17 00:29N 22°07' E 113°47'0 0.0
2016-Aug-16 23:29N 22°07' E 113°47'0 0.1
2016-Aug-16 22:29N 22°07' E 113°48'0 0.0
2016-Aug-16 21:29N 22°07' E 113°48'0 0.0
2016-Aug-16 20:29N 22°07' E 113°48'0 0.1
2016-Aug-16 19:29N 22°07' E 113°47'0 0.0
2016-Aug-16 18:29N 22°07' E 113°47'0 0.0
2016-Aug-16 17:29N 22°07' E 113°47'0 0.0
2016-Aug-16 16:29N 22°07' E 113°47'0 0.1
2016-Aug-16 15:29N 22°07' E 113°48'0 0.0
2016-Aug-16 14:29N 22°07' E 113°48'0 0.0
2016-Aug-16 13:29N 22°07' E 113°48'0 0.0
2016-Aug-16 12:11N 22°07' E 113°48'0 0.0
2016-Aug-16 11:29N 22°07' E 113°48'0 0.0
2016-Aug-16 10:29N 22°07' E 113°48'0 0.0
2016-Aug-16 09:29N 22°07' E 113°48'0 0.1
2016-Aug-16 08:29N 22°07' E 113°48'5 5.5
2016-Aug-16 07:33N 22°03' E 113°51'32811.3
2016-Aug-15 02:33N 24°20' E 119°15'  

Dump ship's entire track history